sensor_id;sensor_type;location;lat;lon;timestamp;P1;durP1;ratioP1;P2;durP2;ratioP2
3627;SDS011;1830;49.000;12.074;2022-12-29T00:00:12;28.80;;;16.37;;
3627;SDS011;1830;49.000;12.074;2022-12-29T00:02:39;23.20;;;16.53;;
3627;SDS011;1830;49.000;12.074;2022-12-29T00:05:07;24.30;;;15.90;;
3627;SDS011;1830;49.000;12.074;2022-12-29T00:07:35;30.43;;;18.10;;
3627;SDS011;1830;49.000;12.074;2022-12-29T00:10:02;27.30;;;19.77;;
3627;SDS011;1830;49.000;12.074;2022-12-29T00:12:30;25.70;;;18.57;;
3627;SDS011;1830;49.000;12.074;2022-12-29T00:15:11;21.47;;;15.07;;
3627;SDS011;1830;49.000;12.074;2022-12-29T00:17:54;24.03;;;16.57;;
3627;SDS011;1830;49.000;12.074;2022-12-29T00:20:21;23.00;;;16.27;;
3627;SDS011;1830;49.000;12.074;2022-12-29T00:23:07;25.60;;;16.03;;
3627;SDS011;1830;49.000;12.074;2022-12-29T00:25:52;19.93;;;14.93;;
3627;SDS011;1830;49.000;12.074;2022-12-29T00:28:38;24.50;;;16.43;;
3627;SDS011;1830;49.000;12.074;2022-12-29T00:31:22;24.23;;;15.63;;
3627;SDS011;1830;49.000;12.074;2022-12-29T00:34:08;22.37;;;16.30;;
3627;SDS011;1830;49.000;12.074;2022-12-29T00:36:54;29.03;;;15.00;;
3627;SDS011;1830;49.000;12.074;2022-12-29T00:39:23;21.27;;;15.03;;
3627;SDS011;1830;49.000;12.074;2022-12-29T00:42:08;19.90;;;14.33;;
3627;SDS011;1830;49.000;12.074;2022-12-29T00:44:52;23.73;;;15.30;;
3627;SDS011;1830;49.000;12.074;2022-12-29T00:47:19;23.57;;;14.90;;
3627;SDS011;1830;49.000;12.074;2022-12-29T00:49:46;25.47;;;14.47;;
3627;SDS011;1830;49.000;12.074;2022-12-29T00:52:12;21.93;;;15.27;;
3627;SDS011;1830;49.000;12.074;2022-12-29T00:54:41;23.43;;;14.87;;
3627;SDS011;1830;49.000;12.074;2022-12-29T00:57:10;21.43;;;15.20;;
3627;SDS011;1830;49.000;12.074;2022-12-29T00:59:37;22.93;;;14.50;;
3627;SDS011;1830;49.000;12.074;2022-12-29T01:02:05;20.87;;;14.97;;
3627;SDS011;1830;49.000;12.074;2022-12-29T01:04:32;21.30;;;14.93;;
3627;SDS011;1830;49.000;12.074;2022-12-29T01:06:59;20.07;;;15.03;;
3627;SDS011;1830;49.000;12.074;2022-12-29T01:09:26;24.47;;;15.00;;
3627;SDS011;1830;49.000;12.074;2022-12-29T01:12:12;23.37;;;13.90;;
3627;SDS011;1830;49.000;12.074;2022-12-29T01:14:39;23.20;;;15.20;;
3627;SDS011;1830;49.000;12.074;2022-12-29T01:17:06;21.63;;;14.73;;
3627;SDS011;1830;49.000;12.074;2022-12-29T01:19:33;21.90;;;14.17;;
3627;SDS011;1830;49.000;12.074;2022-12-29T01:22:00;17.77;;;13.37;;
3627;SDS011;1830;49.000;12.074;2022-12-29T01:24:26;19.13;;;14.37;;
3627;SDS011;1830;49.000;12.074;2022-12-29T01:26:53;18.33;;;13.67;;
3627;SDS011;1830;49.000;12.074;2022-12-29T01:29:21;20.73;;;14.37;;
3627;SDS011;1830;49.000;12.074;2022-12-29T01:31:48;18.13;;;12.80;;
3627;SDS011;1830;49.000;12.074;2022-12-29T01:34:15;21.43;;;13.93;;
3627;SDS011;1830;49.000;12.074;2022-12-29T01:36:42;21.23;;;14.17;;
3627;SDS011;1830;49.000;12.074;2022-12-29T01:39:09;22.60;;;14.20;;
3627;SDS011;1830;49.000;12.074;2022-12-29T01:41:36;20.60;;;14.37;;
3627;SDS011;1830;49.000;12.074;2022-12-29T01:44:02;19.90;;;13.43;;
3627;SDS011;1830;49.000;12.074;2022-12-29T01:46:45;20.40;;;13.83;;
3627;SDS011;1830;49.000;12.074;2022-12-29T01:49:15;23.33;;;14.10;;
3627;SDS011;1830;49.000;12.074;2022-12-29T01:51:45;21.13;;;13.77;;
3627;SDS011;1830;49.000;12.074;2022-12-29T01:54:16;20.93;;;13.20;;
3627;SDS011;1830;49.000;12.074;2022-12-29T01:56:47;21.83;;;12.40;;
3627;SDS011;1830;49.000;12.074;2022-12-29T01:59:16;18.73;;;13.00;;
3627;SDS011;1830;49.000;12.074;2022-12-29T02:01:48;18.57;;;13.40;;
3627;SDS011;1830;49.000;12.074;2022-12-29T02:04:15;17.90;;;13.27;;
3627;SDS011;1830;49.000;12.074;2022-12-29T02:06:44;16.87;;;12.37;;
3627;SDS011;1830;49.000;12.074;2022-12-29T02:09:15;18.60;;;13.37;;
3627;SDS011;1830;49.000;12.074;2022-12-29T02:11:42;19.87;;;13.50;;
3627;SDS011;1830;49.000;12.074;2022-12-29T02:14:09;17.50;;;12.93;;
3627;SDS011;1830;49.000;12.074;2022-12-29T02:16:42;18.77;;;12.70;;
3627;SDS011;1830;49.000;12.074;2022-12-29T02:22:26;22.67;;;13.97;;
3627;SDS011;1830;49.000;12.074;2022-12-29T02:25:10;19.23;;;13.70;;
3627;SDS011;1830;49.000;12.074;2022-12-29T02:28:12;17.80;;;13.23;;
3627;SDS011;1830;49.000;12.074;2022-12-29T02:31:03;20.57;;;13.37;;
3627;SDS011;1830;49.000;12.074;2022-12-29T02:33:41;21.57;;;12.93;;
3627;SDS011;1830;49.000;12.074;2022-12-29T02:36:20;16.53;;;12.13;;
3627;SDS011;1830;49.000;12.074;2022-12-29T02:38:57;17.90;;;13.17;;
3627;SDS011;1830;49.000;12.074;2022-12-29T02:41:31;18.13;;;13.00;;
3627;SDS011;1830;49.000;12.074;2022-12-29T02:44:01;17.63;;;12.53;;
3627;SDS011;1830;49.000;12.074;2022-12-29T02:46:37;17.03;;;13.27;;
3627;SDS011;1830;49.000;12.074;2022-12-29T02:49:10;23.03;;;13.40;;
3627;SDS011;1830;49.000;12.074;2022-12-29T02:51:43;22.50;;;14.00;;
3627;SDS011;1830;49.000;12.074;2022-12-29T02:54:16;21.63;;;13.47;;
3627;SDS011;1830;49.000;12.074;2022-12-29T02:57:01;19.13;;;12.87;;
3627;SDS011;1830;49.000;12.074;2022-12-29T02:59:28;17.10;;;12.20;;
3627;SDS011;1830;49.000;12.074;2022-12-29T03:05:01;16.60;;;12.10;;
3627;SDS011;1830;49.000;12.074;2022-12-29T03:07:39;16.93;;;12.37;;
3627;SDS011;1830;49.000;12.074;2022-12-29T03:10:15;15.73;;;12.10;;
3627;SDS011;1830;49.000;12.074;2022-12-29T03:12:53;19.83;;;12.50;;
3627;SDS011;1830;49.000;12.074;2022-12-29T03:15:44;22.70;;;12.23;;
3627;SDS011;1830;49.000;12.074;2022-12-29T03:18:39;19.73;;;12.27;;
3627;SDS011;1830;49.000;12.074;2022-12-29T03:21:12;17.30;;;12.07;;
3627;SDS011;1830;49.000;12.074;2022-12-29T03:23:43;18.70;;;12.40;;
3627;SDS011;1830;49.000;12.074;2022-12-29T03:26:14;19.03;;;12.80;;
3627;SDS011;1830;49.000;12.074;2022-12-29T03:28:44;30.03;;;12.93;;
3627;SDS011;1830;49.000;12.074;2022-12-29T03:31:15;15.80;;;12.07;;
3627;SDS011;1830;49.000;12.074;2022-12-29T03:33:45;21.00;;;12.77;;
3627;SDS011;1830;49.000;12.074;2022-12-29T03:36:15;23.60;;;12.53;;
3627;SDS011;1830;49.000;12.074;2022-12-29T03:38:50;17.60;;;12.10;;
3627;SDS011;1830;49.000;12.074;2022-12-29T03:41:23;19.63;;;11.83;;
3627;SDS011;1830;49.000;12.074;2022-12-29T03:43:54;18.47;;;12.23;;
3627;SDS011;1830;49.000;12.074;2022-12-29T03:46:21;16.97;;;11.63;;
3627;SDS011;1830;49.000;12.074;2022-12-29T03:48:49;16.93;;;11.87;;
3627;SDS011;1830;49.000;12.074;2022-12-29T03:51:16;18.23;;;11.57;;
3627;SDS011;1830;49.000;12.074;2022-12-29T03:53:42;17.00;;;12.47;;
3627;SDS011;1830;49.000;12.074;2022-12-29T03:56:09;14.90;;;11.53;;
3627;SDS011;1830;49.000;12.074;2022-12-29T03:58:36;17.30;;;12.07;;
3627;SDS011;1830;49.000;12.074;2022-12-29T04:01:03;17.23;;;12.53;;
3627;SDS011;1830;49.000;12.074;2022-12-29T04:03:29;16.70;;;11.80;;
3627;SDS011;1830;49.000;12.074;2022-12-29T04:05:57;17.60;;;12.23;;
3627;SDS011;1830;49.000;12.074;2022-12-29T04:08:24;19.90;;;12.97;;
3627;SDS011;1830;49.000;12.074;2022-12-29T04:10:51;16.53;;;11.43;;
3627;SDS011;1830;49.000;12.074;2022-12-29T04:13:18;18.90;;;12.83;;
3627;SDS011;1830;49.000;12.074;2022-12-29T04:15:45;17.37;;;11.53;;
3627;SDS011;1830;49.000;12.074;2022-12-29T04:18:11;23.40;;;12.80;;
3627;SDS011;1830;49.000;12.074;2022-12-29T04:20:38;14.80;;;11.27;;
3627;SDS011;1830;49.000;12.074;2022-12-29T04:23:24;16.60;;;12.43;;
3627;SDS011;1830;49.000;12.074;2022-12-29T04:25:51;16.70;;;12.20;;
3627;SDS011;1830;49.000;12.074;2022-12-29T04:28:17;20.80;;;13.80;;
3627;SDS011;1830;49.000;12.074;2022-12-29T04:30:44;16.70;;;11.63;;
3627;SDS011;1830;49.000;12.074;2022-12-29T04:33:12;16.90;;;12.03;;
3627;SDS011;1830;49.000;12.074;2022-12-29T04:35:39;15.67;;;11.77;;
3627;SDS011;1830;49.000;12.074;2022-12-29T04:38:06;19.70;;;12.87;;
3627;SDS011;1830;49.000;12.074;2022-12-29T04:40:34;19.27;;;12.13;;
3627;SDS011;1830;49.000;12.074;2022-12-29T04:43:01;15.83;;;12.27;;
3627;SDS011;1830;49.000;12.074;2022-12-29T04:45:28;20.07;;;12.00;;
3627;SDS011;1830;49.000;12.074;2022-12-29T04:47:54;15.80;;;11.33;;
3627;SDS011;1830;49.000;12.074;2022-12-29T04:50:21;18.37;;;12.13;;
3627;SDS011;1830;49.000;12.074;2022-12-29T04:52:48;21.60;;;12.00;;
3627;SDS011;1830;49.000;12.074;2022-12-29T04:55:15;14.77;;;11.90;;
3627;SDS011;1830;49.000;12.074;2022-12-29T04:57:43;19.07;;;12.77;;
3627;SDS011;1830;49.000;12.074;2022-12-29T05:00:10;20.13;;;12.17;;
3627;SDS011;1830;49.000;12.074;2022-12-29T05:02:38;20.53;;;11.80;;
3627;SDS011;1830;49.000;12.074;2022-12-29T05:05:06;16.77;;;11.83;;
3627;SDS011;1830;49.000;12.074;2022-12-29T05:07:33;21.90;;;12.57;;
3627;SDS011;1830;49.000;12.074;2022-12-29T05:10:00;15.70;;;12.00;;
3627;SDS011;1830;49.000;12.074;2022-12-29T05:12:29;15.00;;;11.90;;
3627;SDS011;1830;49.000;12.074;2022-12-29T05:14:57;16.70;;;12.20;;
3627;SDS011;1830;49.000;12.074;2022-12-29T05:17:24;19.50;;;11.87;;
3627;SDS011;1830;49.000;12.074;2022-12-29T05:19:51;17.20;;;12.00;;
3627;SDS011;1830;49.000;12.074;2022-12-29T05:22:17;17.00;;;12.17;;
3627;SDS011;1830;49.000;12.074;2022-12-29T05:24:44;18.30;;;12.70;;
3627;SDS011;1830;49.000;12.074;2022-12-29T05:27:11;16.50;;;11.97;;
3627;SDS011;1830;49.000;12.074;2022-12-29T05:29:38;17.03;;;11.73;;
3627;SDS011;1830;49.000;12.074;2022-12-29T05:32:06;18.20;;;12.83;;
3627;SDS011;1830;49.000;12.074;2022-12-29T05:34:33;15.73;;;11.57;;
3627;SDS011;1830;49.000;12.074;2022-12-29T05:36:59;17.67;;;13.23;;
3627;SDS011;1830;49.000;12.074;2022-12-29T05:39:27;19.47;;;12.10;;
3627;SDS011;1830;49.000;12.074;2022-12-29T05:41:54;18.00;;;11.50;;
3627;SDS011;1830;49.000;12.074;2022-12-29T05:44:21;16.57;;;12.20;;
3627;SDS011;1830;49.000;12.074;2022-12-29T05:46:47;16.70;;;11.30;;
3627;SDS011;1830;49.000;12.074;2022-12-29T05:49:16;20.10;;;11.83;;
3627;SDS011;1830;49.000;12.074;2022-12-29T05:51:43;16.70;;;12.13;;
3627;SDS011;1830;49.000;12.074;2022-12-29T05:54:09;15.03;;;11.20;;
3627;SDS011;1830;49.000;12.074;2022-12-29T05:56:36;16.83;;;11.27;;
3627;SDS011;1830;49.000;12.074;2022-12-29T05:59:03;12.80;;;10.80;;
3627;SDS011;1830;49.000;12.074;2022-12-29T06:01:29;18.70;;;11.30;;
3627;SDS011;1830;49.000;12.074;2022-12-29T06:03:56;17.30;;;11.97;;
3627;SDS011;1830;49.000;12.074;2022-12-29T06:06:24;19.40;;;11.57;;
3627;SDS011;1830;49.000;12.074;2022-12-29T06:08:51;15.13;;;10.47;;
3627;SDS011;1830;49.000;12.074;2022-12-29T06:11:18;16.20;;;11.97;;
3627;SDS011;1830;49.000;12.074;2022-12-29T06:13:44;13.50;;;10.60;;
3627;SDS011;1830;49.000;12.074;2022-12-29T06:16:11;14.30;;;10.90;;
3627;SDS011;1830;49.000;12.074;2022-12-29T06:18:38;15.93;;;10.90;;
3627;SDS011;1830;49.000;12.074;2022-12-29T06:21:05;14.50;;;10.80;;
3627;SDS011;1830;49.000;12.074;2022-12-29T06:23:33;20.23;;;10.50;;
3627;SDS011;1830;49.000;12.074;2022-12-29T06:26:00;18.57;;;10.90;;
3627;SDS011;1830;49.000;12.074;2022-12-29T06:28:26;17.30;;;11.50;;
3627;SDS011;1830;49.000;12.074;2022-12-29T06:30:53;18.43;;;12.00;;
3627;SDS011;1830;49.000;12.074;2022-12-29T06:33:20;14.70;;;10.87;;
3627;SDS011;1830;49.000;12.074;2022-12-29T06:35:46;16.30;;;11.57;;
3627;SDS011;1830;49.000;12.074;2022-12-29T06:38:13;23.27;;;11.03;;
3627;SDS011;1830;49.000;12.074;2022-12-29T06:40:42;16.30;;;10.67;;
3627;SDS011;1830;49.000;12.074;2022-12-29T06:43:10;15.40;;;10.40;;
3627;SDS011;1830;49.000;12.074;2022-12-29T06:45:37;13.13;;;10.70;;
3627;SDS011;1830;49.000;12.074;2022-12-29T06:48:04;12.97;;;10.53;;
3627;SDS011;1830;49.000;12.074;2022-12-29T06:50:31;16.00;;;11.40;;
3627;SDS011;1830;49.000;12.074;2022-12-29T06:52:58;14.13;;;10.87;;
3627;SDS011;1830;49.000;12.074;2022-12-29T06:55:25;15.67;;;10.80;;
3627;SDS011;1830;49.000;12.074;2022-12-29T06:57:54;19.63;;;11.50;;
3627;SDS011;1830;49.000;12.074;2022-12-29T07:00:22;15.20;;;11.83;;
3627;SDS011;1830;49.000;12.074;2022-12-29T07:02:49;16.17;;;11.53;;
3627;SDS011;1830;49.000;12.074;2022-12-29T07:05:16;14.77;;;10.90;;
3627;SDS011;1830;49.000;12.074;2022-12-29T07:07:42;16.90;;;10.67;;
3627;SDS011;1830;49.000;12.074;2022-12-29T07:10:09;17.03;;;12.40;;
3627;SDS011;1830;49.000;12.074;2022-12-29T07:12:36;15.80;;;11.30;;
3627;SDS011;1830;49.000;12.074;2022-12-29T07:15:05;16.83;;;10.60;;
3627;SDS011;1830;49.000;12.074;2022-12-29T07:17:32;15.13;;;10.37;;
3627;SDS011;1830;49.000;12.074;2022-12-29T07:19:59;13.20;;;10.80;;
3627;SDS011;1830;49.000;12.074;2022-12-29T07:22:26;17.63;;;10.93;;
3627;SDS011;1830;49.000;12.074;2022-12-29T07:24:52;16.23;;;10.70;;
3627;SDS011;1830;49.000;12.074;2022-12-29T07:27:19;16.20;;;11.30;;
3627;SDS011;1830;49.000;12.074;2022-12-29T07:29:46;16.00;;;10.80;;
3627;SDS011;1830;49.000;12.074;2022-12-29T07:32:14;15.43;;;10.83;;
3627;SDS011;1830;49.000;12.074;2022-12-29T07:34:41;15.30;;;10.67;;
3627;SDS011;1830;49.000;12.074;2022-12-29T07:37:10;13.93;;;9.90;;
3627;SDS011;1830;49.000;12.074;2022-12-29T07:39:37;16.93;;;11.63;;
3627;SDS011;1830;49.000;12.074;2022-12-29T07:42:03;16.17;;;10.87;;
3627;SDS011;1830;49.000;12.074;2022-12-29T07:44:31;12.03;;;10.00;;
3627;SDS011;1830;49.000;12.074;2022-12-29T07:46:58;15.33;;;11.77;;
3627;SDS011;1830;49.000;12.074;2022-12-29T07:49:27;14.80;;;11.70;;
3627;SDS011;1830;49.000;12.074;2022-12-29T07:51:54;15.23;;;11.90;;
3627;SDS011;1830;49.000;12.074;2022-12-29T07:54:20;15.83;;;11.13;;
3627;SDS011;1830;49.000;12.074;2022-12-29T07:56:48;13.87;;;11.57;;
3627;SDS011;1830;49.000;12.074;2022-12-29T07:59:15;14.70;;;10.87;;
3627;SDS011;1830;49.000;12.074;2022-12-29T08:01:41;16.17;;;11.60;;
3627;SDS011;1830;49.000;12.074;2022-12-29T08:04:08;15.40;;;10.93;;
3627;SDS011;1830;49.000;12.074;2022-12-29T08:06:36;16.93;;;10.23;;
3627;SDS011;1830;49.000;12.074;2022-12-29T08:09:03;13.30;;;9.87;;
3627;SDS011;1830;49.000;12.074;2022-12-29T08:11:30;19.03;;;10.97;;
3627;SDS011;1830;49.000;12.074;2022-12-29T08:13:57;12.93;;;9.93;;
3627;SDS011;1830;49.000;12.074;2022-12-29T08:16:23;13.00;;;10.07;;
3627;SDS011;1830;49.000;12.074;2022-12-29T08:18:50;15.37;;;10.10;;
3627;SDS011;1830;49.000;12.074;2022-12-29T08:21:17;17.03;;;9.90;;
3627;SDS011;1830;49.000;12.074;2022-12-29T08:23:45;14.67;;;9.37;;
3627;SDS011;1830;49.000;12.074;2022-12-29T08:26:13;15.30;;;10.87;;
3627;SDS011;1830;49.000;12.074;2022-12-29T08:28:39;13.50;;;10.70;;
3627;SDS011;1830;49.000;12.074;2022-12-29T08:31:06;13.40;;;10.83;;
3627;SDS011;1830;49.000;12.074;2022-12-29T08:33:33;17.33;;;11.13;;
3627;SDS011;1830;49.000;12.074;2022-12-29T08:35:59;15.57;;;9.73;;
3627;SDS011;1830;49.000;12.074;2022-12-29T08:38:27;14.53;;;10.93;;
3627;SDS011;1830;49.000;12.074;2022-12-29T08:40:56;13.40;;;10.07;;
3627;SDS011;1830;49.000;12.074;2022-12-29T08:43:23;15.10;;;9.57;;
3627;SDS011;1830;49.000;12.074;2022-12-29T08:45:50;15.10;;;10.37;;
3627;SDS011;1830;49.000;12.074;2022-12-29T08:48:17;14.10;;;10.50;;
3627;SDS011;1830;49.000;12.074;2022-12-29T08:50:47;28.13;;;10.53;;
3627;SDS011;1830;49.000;12.074;2022-12-29T08:53:14;16.30;;;10.27;;
3627;SDS011;1830;49.000;12.074;2022-12-29T08:55:41;13.33;;;10.40;;
3627;SDS011;1830;49.000;12.074;2022-12-29T08:58:09;13.73;;;10.80;;
3627;SDS011;1830;49.000;12.074;2022-12-29T09:00:39;14.97;;;11.10;;
3627;SDS011;1830;49.000;12.074;2022-12-29T09:03:06;13.97;;;9.33;;
3627;SDS011;1830;49.000;12.074;2022-12-29T09:05:33;13.80;;;10.20;;
3627;SDS011;1830;49.000;12.074;2022-12-29T09:07:59;13.20;;;9.80;;
3627;SDS011;1830;49.000;12.074;2022-12-29T09:10:26;15.53;;;9.97;;
3627;SDS011;1830;49.000;12.074;2022-12-29T09:12:53;12.03;;;9.47;;
3627;SDS011;1830;49.000;12.074;2022-12-29T09:15:21;17.93;;;10.03;;
3627;SDS011;1830;49.000;12.074;2022-12-29T09:17:48;13.17;;;9.90;;
3627;SDS011;1830;49.000;12.074;2022-12-29T09:20:16;17.10;;;11.37;;
3627;SDS011;1830;49.000;12.074;2022-12-29T09:22:43;15.90;;;10.53;;
3627;SDS011;1830;49.000;12.074;2022-12-29T09:25:11;19.97;;;14.00;;
3627;SDS011;1830;49.000;12.074;2022-12-29T09:27:38;13.00;;;10.20;;
3627;SDS011;1830;49.000;12.074;2022-12-29T09:30:06;12.30;;;9.60;;
3627;SDS011;1830;49.000;12.074;2022-12-29T09:32:36;12.97;;;9.40;;
3627;SDS011;1830;49.000;12.074;2022-12-29T09:35:03;18.20;;;9.87;;
3627;SDS011;1830;49.000;12.074;2022-12-29T09:37:30;12.77;;;10.10;;
3627;SDS011;1830;49.000;12.074;2022-12-29T09:39:57;19.73;;;10.17;;
3627;SDS011;1830;49.000;12.074;2022-12-29T09:42:25;13.80;;;9.80;;
3627;SDS011;1830;49.000;12.074;2022-12-29T09:44:59;13.70;;;10.03;;
3627;SDS011;1830;49.000;12.074;2022-12-29T09:47:38;13.37;;;9.00;;
3627;SDS011;1830;49.000;12.074;2022-12-29T09:50:09;16.83;;;9.63;;
3627;SDS011;1830;49.000;12.074;2022-12-29T09:52:47;15.17;;;9.70;;
3627;SDS011;1830;49.000;12.074;2022-12-29T09:55:17;12.47;;;9.00;;
3627;SDS011;1830;49.000;12.074;2022-12-29T09:57:47;19.73;;;8.90;;
3627;SDS011;1830;49.000;12.074;2022-12-29T10:00:19;12.77;;;9.30;;
3627;SDS011;1830;49.000;12.074;2022-12-29T10:02:49;9.70;;;8.40;;
3627;SDS011;1830;49.000;12.074;2022-12-29T10:05:27;9.97;;;8.07;;
3627;SDS011;1830;49.000;12.074;2022-12-29T10:08:07;13.20;;;9.43;;
3627;SDS011;1830;49.000;12.074;2022-12-29T10:10:46;11.57;;;9.10;;
3627;SDS011;1830;49.000;12.074;2022-12-29T10:13:23;12.77;;;9.03;;
3627;SDS011;1830;49.000;12.074;2022-12-29T10:15:58;14.10;;;8.90;;
3627;SDS011;1830;49.000;12.074;2022-12-29T10:21:34;13.27;;;8.97;;
3627;SDS011;1830;49.000;12.074;2022-12-29T10:24:10;12.07;;;8.90;;
3627;SDS011;1830;49.000;12.074;2022-12-29T10:26:39;11.70;;;8.67;;
3627;SDS011;1830;49.000;12.074;2022-12-29T10:29:11;9.60;;;8.20;;
3627;SDS011;1830;49.000;12.074;2022-12-29T10:31:43;14.70;;;9.40;;
3627;SDS011;1830;49.000;12.074;2022-12-29T10:34:15;13.90;;;9.20;;
3627;SDS011;1830;49.000;12.074;2022-12-29T10:36:48;13.93;;;10.80;;
3627;SDS011;1830;49.000;12.074;2022-12-29T10:39:23;11.10;;;8.93;;
3627;SDS011;1830;49.000;12.074;2022-12-29T10:41:59;12.47;;;9.40;;
3627;SDS011;1830;49.000;12.074;2022-12-29T10:44:31;16.23;;;9.97;;
3627;SDS011;1830;49.000;12.074;2022-12-29T10:47:00;12.27;;;9.80;;
3627;SDS011;1830;49.000;12.074;2022-12-29T10:49:31;12.80;;;9.10;;
3627;SDS011;1830;49.000;12.074;2022-12-29T10:52:04;12.43;;;9.57;;
3627;SDS011;1830;49.000;12.074;2022-12-29T10:54:32;13.60;;;9.87;;
3627;SDS011;1830;49.000;12.074;2022-12-29T10:57:05;12.90;;;9.53;;
3627;SDS011;1830;49.000;12.074;2022-12-29T10:59:35;16.07;;;9.10;;
3627;SDS011;1830;49.000;12.074;2022-12-29T11:02:11;14.13;;;8.70;;
3627;SDS011;1830;49.000;12.074;2022-12-29T11:04:54;16.47;;;9.40;;
3627;SDS011;1830;49.000;12.074;2022-12-29T11:07:27;12.77;;;9.43;;
3627;SDS011;1830;49.000;12.074;2022-12-29T11:09:55;12.20;;;9.30;;
3627;SDS011;1830;49.000;12.074;2022-12-29T11:12:41;11.67;;;8.33;;
3627;SDS011;1830;49.000;12.074;2022-12-29T11:15:21;15.70;;;10.03;;
3627;SDS011;1830;49.000;12.074;2022-12-29T11:17:49;11.10;;;9.03;;
3627;SDS011;1830;49.000;12.074;2022-12-29T11:20:28;15.47;;;10.03;;
3627;SDS011;1830;49.000;12.074;2022-12-29T11:22:57;16.07;;;9.70;;
3627;SDS011;1830;49.000;12.074;2022-12-29T11:25:24;15.87;;;8.90;;
3627;SDS011;1830;49.000;12.074;2022-12-29T11:27:55;18.13;;;8.97;;
3627;SDS011;1830;49.000;12.074;2022-12-29T11:30:24;13.10;;;9.80;;
3627;SDS011;1830;49.000;12.074;2022-12-29T11:32:52;11.60;;;8.77;;
3627;SDS011;1830;49.000;12.074;2022-12-29T11:35:30;11.67;;;8.40;;
3627;SDS011;1830;49.000;12.074;2022-12-29T11:38:00;12.33;;;7.60;;
3627;SDS011;1830;49.000;12.074;2022-12-29T11:40:29;11.73;;;9.00;;
3627;SDS011;1830;49.000;12.074;2022-12-29T11:42:59;13.37;;;7.80;;
3627;SDS011;1830;49.000;12.074;2022-12-29T11:45:29;12.43;;;9.07;;
3627;SDS011;1830;49.000;12.074;2022-12-29T11:47:59;13.17;;;8.07;;
3627;SDS011;1830;49.000;12.074;2022-12-29T11:50:33;14.47;;;8.77;;
3627;SDS011;1830;49.000;12.074;2022-12-29T11:53:04;11.07;;;8.50;;
3627;SDS011;1830;49.000;12.074;2022-12-29T11:55:36;12.57;;;8.10;;
3627;SDS011;1830;49.000;12.074;2022-12-29T11:58:03;12.10;;;7.80;;
3627;SDS011;1830;49.000;12.074;2022-12-29T12:00:30;14.23;;;7.90;;
3627;SDS011;1830;49.000;12.074;2022-12-29T12:03:00;11.40;;;8.43;;
3627;SDS011;1830;49.000;12.074;2022-12-29T12:05:31;12.60;;;8.27;;
3627;SDS011;1830;49.000;12.074;2022-12-29T12:08:08;11.60;;;8.10;;
3627;SDS011;1830;49.000;12.074;2022-12-29T12:10:39;9.97;;;7.13;;
3627;SDS011;1830;49.000;12.074;2022-12-29T12:13:14;9.13;;;7.20;;
3627;SDS011;1830;49.000;12.074;2022-12-29T12:15:47;10.37;;;7.73;;
3627;SDS011;1830;49.000;12.074;2022-12-29T12:18:18;10.10;;;8.50;;
3627;SDS011;1830;49.000;12.074;2022-12-29T12:20:54;11.13;;;8.83;;
3627;SDS011;1830;49.000;12.074;2022-12-29T12:23:26;10.93;;;8.77;;
3627;SDS011;1830;49.000;12.074;2022-12-29T12:26:04;12.27;;;8.03;;
3627;SDS011;1830;49.000;12.074;2022-12-29T12:28:37;18.80;;;7.97;;
3627;SDS011;1830;49.000;12.074;2022-12-29T12:31:13;10.20;;;8.30;;
3627;SDS011;1830;49.000;12.074;2022-12-29T12:33:54;11.80;;;8.57;;
3627;SDS011;1830;49.000;12.074;2022-12-29T12:39:49;13.93;;;7.80;;
3627;SDS011;1830;49.000;12.074;2022-12-29T12:42:29;18.63;;;11.77;;
3627;SDS011;1830;49.000;12.074;2022-12-29T12:45:09;12.60;;;7.60;;
3627;SDS011;1830;49.000;12.074;2022-12-29T12:47:55;9.50;;;5.43;;
3627;SDS011;1830;49.000;12.074;2022-12-29T12:50:36;6.33;;;4.40;;
3627;SDS011;1830;49.000;12.074;2022-12-29T12:53:25;8.93;;;3.97;;
3627;SDS011;1830;49.000;12.074;2022-12-29T12:56:08;4.40;;;3.37;;
3627;SDS011;1830;49.000;12.074;2022-12-29T12:58:53;11.17;;;3.33;;
3627;SDS011;1830;49.000;12.074;2022-12-29T13:01:29;4.60;;;2.90;;
3627;SDS011;1830;49.000;12.074;2022-12-29T13:04:17;8.60;;;3.20;;
3627;SDS011;1830;49.000;12.074;2022-12-29T13:07:01;8.53;;;4.00;;
3627;SDS011;1830;49.000;12.074;2022-12-29T13:09:42;6.60;;;3.93;;
3627;SDS011;1830;49.000;12.074;2022-12-29T13:12:21;4.87;;;3.60;;
3627;SDS011;1830;49.000;12.074;2022-12-29T13:15:00;9.20;;;4.70;;
3627;SDS011;1830;49.000;12.074;2022-12-29T13:17:36;9.97;;;4.43;;
3627;SDS011;1830;49.000;12.074;2022-12-29T13:20:10;9.60;;;3.60;;
3627;SDS011;1830;49.000;12.074;2022-12-29T13:22:47;15.00;;;4.53;;
3627;SDS011;1830;49.000;12.074;2022-12-29T13:25:23;5.90;;;4.17;;
3627;SDS011;1830;49.000;12.074;2022-12-29T13:27:58;6.90;;;4.30;;
3627;SDS011;1830;49.000;12.074;2022-12-29T13:30:32;5.33;;;4.17;;
3627;SDS011;1830;49.000;12.074;2022-12-29T13:33:04;7.93;;;3.97;;
3627;SDS011;1830;49.000;12.074;2022-12-29T13:35:44;6.50;;;3.47;;
3627;SDS011;1830;49.000;12.074;2022-12-29T13:38:21;14.70;;;4.20;;
3627;SDS011;1830;49.000;12.074;2022-12-29T13:40:52;6.77;;;4.00;;
3627;SDS011;1830;49.000;12.074;2022-12-29T13:43:24;10.57;;;4.17;;
3627;SDS011;1830;49.000;12.074;2022-12-29T13:45:55;6.60;;;3.80;;
3627;SDS011;1830;49.000;12.074;2022-12-29T13:48:28;8.43;;;4.00;;
3627;SDS011;1830;49.000;12.074;2022-12-29T13:51:02;6.43;;;3.43;;
3627;SDS011;1830;49.000;12.074;2022-12-29T13:53:33;10.53;;;4.23;;
3627;SDS011;1830;49.000;12.074;2022-12-29T13:56:05;9.87;;;3.80;;
3627;SDS011;1830;49.000;12.074;2022-12-29T13:58:39;4.43;;;3.27;;
3627;SDS011;1830;49.000;12.074;2022-12-29T14:01:13;7.83;;;4.07;;
3627;SDS011;1830;49.000;12.074;2022-12-29T14:03:46;4.37;;;3.70;;
3627;SDS011;1830;49.000;12.074;2022-12-29T14:06:16;4.40;;;3.10;;
3627;SDS011;1830;49.000;12.074;2022-12-29T14:08:48;4.87;;;3.00;;
3627;SDS011;1830;49.000;12.074;2022-12-29T14:11:18;8.37;;;4.30;;
3627;SDS011;1830;49.000;12.074;2022-12-29T14:13:51;6.30;;;3.73;;
3627;SDS011;1830;49.000;12.074;2022-12-29T14:16:26;7.23;;;4.00;;
3627;SDS011;1830;49.000;12.074;2022-12-29T14:18:55;5.87;;;3.33;;
3627;SDS011;1830;49.000;12.074;2022-12-29T14:21:29;7.20;;;4.00;;
3627;SDS011;1830;49.000;12.074;2022-12-29T14:24:02;6.73;;;3.23;;
3627;SDS011;1830;49.000;12.074;2022-12-29T14:30:05;10.93;;;3.80;;
3627;SDS011;1830;49.000;12.074;2022-12-29T14:33:11;7.50;;;4.17;;
3627;SDS011;1830;49.000;12.074;2022-12-29T14:35:40;11.30;;;5.03;;
3627;SDS011;1830;49.000;12.074;2022-12-29T14:38:16;10.17;;;3.73;;
3627;SDS011;1830;49.000;12.074;2022-12-29T14:40:45;6.60;;;3.20;;
3627;SDS011;1830;49.000;12.074;2022-12-29T14:43:16;4.57;;;3.27;;
3627;SDS011;1830;49.000;12.074;2022-12-29T14:45:52;6.40;;;3.90;;
3627;SDS011;1830;49.000;12.074;2022-12-29T14:48:30;7.80;;;3.70;;
3627;SDS011;1830;49.000;12.074;2022-12-29T14:51:01;22.83;;;5.10;;
3627;SDS011;1830;49.000;12.074;2022-12-29T14:53:42;9.93;;;4.20;;
3627;SDS011;1830;49.000;12.074;2022-12-29T14:56:11;16.47;;;7.53;;
3627;SDS011;1830;49.000;12.074;2022-12-29T14:58:41;6.10;;;4.63;;
3627;SDS011;1830;49.000;12.074;2022-12-29T15:01:18;7.77;;;3.80;;
3627;SDS011;1830;49.000;12.074;2022-12-29T15:03:50;8.90;;;3.53;;
3627;SDS011;1830;49.000;12.074;2022-12-29T15:06:20;6.23;;;3.53;;
3627;SDS011;1830;49.000;12.074;2022-12-29T15:08:50;9.13;;;3.50;;
3627;SDS011;1830;49.000;12.074;2022-12-29T15:11:20;9.73;;;3.00;;
3627;SDS011;1830;49.000;12.074;2022-12-29T15:13:48;9.93;;;5.80;;
3627;SDS011;1830;49.000;12.074;2022-12-29T15:16:23;13.90;;;8.27;;
3627;SDS011;1830;49.000;12.074;2022-12-29T15:18:51;11.60;;;7.90;;